createdAt,value
2018-05-12T00:00:08.377Z,71.75
2018-05-12T00:02:35.836Z,72.90
2018-05-12T00:05:03.286Z,72.83
2018-05-12T00:07:31.367Z,74.15
2018-05-12T00:09:58.821Z,74.02
2018-05-12T00:12:26.273Z,72.10
2018-05-12T00:14:53.773Z,71.08
2018-05-12T00:17:21.180Z,72.33
2018-05-12T00:19:48.634Z,73.36
2018-05-12T00:22:16.093Z,73.32
2018-05-12T00:24:43.546Z,74.76
2018-05-12T00:27:10.994Z,74.86
2018-05-12T00:29:38.444Z,74.21
2018-05-12T00:32:05.899Z,74.67
2018-05-12T00:34:33.343Z,76.08
2018-05-12T00:37:00.794Z,75.61
2018-05-12T00:39:28.266Z,76.22
2018-05-12T00:41:55.710Z,77.45
2018-05-12T00:44:23.159Z,75.90
2018-05-12T00:46:50.637Z,76.09
2018-05-12T00:49:18.087Z,76.82
2018-05-12T00:51:45.553Z,77.02
2018-05-12T00:54:13.021Z,77.21
2018-05-12T00:56:40.482Z,76.80
2018-05-12T00:59:07.972Z,77.27
2018-05-12T01:01:35.429Z,77.47
2018-05-12T01:04:02.970Z,77.04
2018-05-12T01:06:30.406Z,77.46
2018-05-12T01:08:57.865Z,77.73
2018-05-12T01:11:25.329Z,76.76
2018-05-12T01:13:52.792Z,77.19
2018-05-12T01:16:20.246Z,76.82
2018-05-12T01:18:47.722Z,77.31
2018-05-12T01:21:15.186Z,76.81
2018-05-12T01:23:42.634Z,77.44
2018-05-12T01:26:10.090Z,76.87
2018-05-12T01:28:37.558Z,78.05
2018-05-12T01:31:05.006Z,77.12
2018-05-12T01:33:32.454Z,77.87
2018-05-12T01:35:59.913Z,78.35
2018-05-12T01:38:27.353Z,78.53
2018-05-12T01:40:54.788Z,78.96
2018-05-12T01:43:22.260Z,78.71
2018-05-12T01:45:49.720Z,79.14
2018-05-12T01:48:17.265Z,77.87
2018-05-12T01:50:44.714Z,76.73
2018-05-12T01:53:12.145Z,77.42
2018-05-12T01:55:39.593Z,75.91
2018-05-12T01:58:07.033Z,75.10
2018-05-12T02:00:34.506Z,74.27
2018-05-12T02:03:01.946Z,74.59
2018-05-12T02:05:29.398Z,75.23
2018-05-12T02:07:56.864Z,75.84
2018-05-12T02:10:24.319Z,75.88
2018-05-12T02:12:51.819Z,75.45
2018-05-12T02:15:19.273Z,75.26
2018-05-12T02:17:46.741Z,74.81
2018-05-12T02:20:14.195Z,75.03
2018-05-12T02:22:41.651Z,75.59
2018-05-12T02:25:09.110Z,75.20
2018-05-12T02:27:36.577Z,74.41
2018-05-12T02:30:04.034Z,74.92
2018-05-12T02:32:31.474Z,74.54
2018-05-12T02:34:58.954Z,73.62
2018-05-12T02:37:26.404Z,72.99
2018-05-12T02:39:53.851Z,76.06
2018-05-12T02:42:21.315Z,75.94
2018-05-12T02:44:48.765Z,76.17
2018-05-12T02:47:16.238Z,76.06
2018-05-12T02:49:43.692Z,74.90
2018-05-12T02:52:11.154Z,74.82
2018-05-12T02:54:38.609Z,75.80
2018-05-12T02:57:06.061Z,77.03
2018-05-12T02:59:33.536Z,77.77
2018-05-12T03:02:01.001Z,77.15
2018-05-12T03:04:28.535Z,76.44
2018-05-12T03:06:55.987Z,76.80
2018-05-12T03:09:23.461Z,76.80
2018-05-12T03:11:50.938Z,77.31
2018-05-12T03:14:18.390Z,77.21
2018-05-12T03:16:45.837Z,76.65
2018-05-12T03:19:13.319Z,77.98
2018-05-12T03:21:40.767Z,77.53
2018-05-12T03:24:08.204Z,76.69
2018-05-12T03:26:35.675Z,76.35
2018-05-12T03:29:03.178Z,77.68
2018-05-12T03:31:30.635Z,76.31
2018-05-12T03:33:58.114Z,76.65
2018-05-12T03:36:25.630Z,75.99
2018-05-12T03:38:53.171Z,76.32
2018-05-12T03:41:20.591Z,75.42
2018-05-12T03:43:48.046Z,74.42
2018-05-12T03:46:15.498Z,75.36
2018-05-12T03:48:42.974Z,78.31
2018-05-12T03:51:10.435Z,78.96
2018-05-12T03:53:37.870Z,78.77
2018-05-12T03:56:05.345Z,80.49
2018-05-12T03:58:32.803Z,78.62
2018-05-12T04:01:00.406Z,78.49
2018-05-12T04:03:27.861Z,78.22
2018-05-12T04:06:07.165Z,77.78
2018-05-12T04:08:47.350Z,77.65
2018-05-12T04:11:26.635Z,77.70
2018-05-12T04:13:54.108Z,76.89
2018-05-12T04:16:21.564Z,76.86
2018-05-12T04:18:49.037Z,77.10
2018-05-12T04:21:16.479Z,77.95
2018-05-12T04:23:43.948Z,77.31
2018-05-12T04:26:11.395Z,77.23
2018-05-12T04:28:38.882Z,77.79
2018-05-12T04:31:06.354Z,78.19
2018-05-12T04:33:33.824Z,78.11
2018-05-12T04:36:01.291Z,75.55
2018-05-12T04:38:28.785Z,74.71
2018-05-12T04:40:56.222Z,75.98
2018-05-12T04:43:23.694Z,74.47
2018-05-12T04:45:51.169Z,74.91
2018-05-12T04:48:18.696Z,72.73
2018-05-12T04:50:46.217Z,73.84
2018-05-12T04:53:13.671Z,73.04
2018-05-12T04:55:41.130Z,72.50
2018-05-12T04:58:08.597Z,70.26
2018-05-12T05:00:36.065Z,70.18
2018-05-12T05:03:03.535Z,69.60
2018-05-12T05:05:31.014Z,71.75
2018-05-12T05:07:58.541Z,71.90
2018-05-12T05:10:26.010Z,71.84
2018-05-12T05:12:53.461Z,69.40
2018-05-12T05:15:21.111Z,70.04
2018-05-12T05:17:48.496Z,69.41
2018-05-12T05:20:15.942Z,69.53
2018-05-12T05:22:43.393Z,71.25
2018-05-12T05:25:10.849Z,70.98
2018-05-12T05:27:38.338Z,68.10
2018-05-12T05:30:05.810Z,69.80
2018-05-12T05:32:33.275Z,69.18
2018-05-12T05:35:00.764Z,69.04
2018-05-12T05:37:28.224Z,68.42
2018-05-12T05:39:55.665Z,70.55
2018-05-12T05:42:23.100Z,67.29
2018-05-12T05:44:50.547Z,66.30
2018-05-12T05:47:18.233Z,66.35
2018-05-12T05:49:45.732Z,65.91
2018-05-12T05:52:13.209Z,66.71
2018-05-12T05:54:40.728Z,66.82
2018-05-12T05:57:08.210Z,67.53
2018-05-12T05:59:35.690Z,67.06
2018-05-12T06:02:03.128Z,65.37
2018-05-12T06:04:30.595Z,64.89
2018-05-12T06:06:58.068Z,65.96
2018-05-12T06:09:25.498Z,65.35
2018-05-12T06:11:53.178Z,61.20
2018-05-12T06:14:20.752Z,64.52
2018-05-12T06:16:48.259Z,62.92
2018-05-12T06:19:15.722Z,61.57
2018-05-12T06:21:43.203Z,61.91
2018-05-12T06:24:10.659Z,60.52
2018-05-12T06:26:38.125Z,60.22
2018-05-12T06:29:05.572Z,61.26
2018-05-12T06:31:33.022Z,61.27
2018-05-12T06:34:00.511Z,59.43
2018-05-12T06:36:27.968Z,60.64
2018-05-12T06:38:55.464Z,59.46
2018-05-12T06:41:22.934Z,57.39
2018-05-12T06:43:50.419Z,56.57
2018-05-12T06:46:17.890Z,55.82
2018-05-12T06:48:45.356Z,54.25
2018-05-12T06:51:12.828Z,54.76
2018-05-12T06:53:40.281Z,56.08
2018-05-12T06:56:07.749Z,57.27
2018-05-12T06:58:35.241Z,56.30
2018-05-12T07:01:02.696Z,56.10
2018-05-12T07:03:30.165Z,55.67
2018-05-12T07:05:57.621Z,55.55
2018-05-12T07:08:25.074Z,54.61
2018-05-12T07:10:52.533Z,53.29
2018-05-12T07:13:19.998Z,54.69
2018-05-12T07:15:47.444Z,52.21
2018-05-12T07:18:14.910Z,53.86
2018-05-12T07:20:42.353Z,52.06
2018-05-12T07:23:09.811Z,50.97
2018-05-12T07:25:37.327Z,52.62
2018-05-12T07:28:04.835Z,51.84
2018-05-12T07:30:32.281Z,52.23
2018-05-12T07:32:59.756Z,49.17
2018-05-12T07:35:27.248Z,52.02
2018-05-12T07:37:54.689Z,50.39
2018-05-12T07:40:22.165Z,50.04
2018-05-12T07:42:49.615Z,50.35
2018-05-12T07:45:17.079Z,52.07
2018-05-12T07:47:44.530Z,51.12
2018-05-12T07:50:11.968Z,50.80
2018-05-12T07:52:39.418Z,48.38
2018-05-12T07:55:06.882Z,48.53
2018-05-12T07:57:34.350Z,48.48
2018-05-12T08:00:01.807Z,48.34
2018-05-12T08:02:29.287Z,48.50
2018-05-12T08:04:56.747Z,46.53
2018-05-12T08:07:24.231Z,45.84
2018-05-12T08:09:51.718Z,45.88
2018-05-12T08:12:19.249Z,46.62
2018-05-12T08:14:46.721Z,45.15
2018-05-12T08:17:14.201Z,45.21
2018-05-12T08:19:41.647Z,47.04
2018-05-12T08:22:09.102Z,47.02
2018-05-12T08:24:36.629Z,45.94
2018-05-12T08:27:04.085Z,45.98
2018-05-12T08:29:31.527Z,45.15
2018-05-12T08:31:59.017Z,44.42
2018-05-12T08:34:26.466Z,45.97
2018-05-12T08:36:53.915Z,44.26
2018-05-12T08:39:21.412Z,42.93
2018-05-12T08:41:48.857Z,42.70
2018-05-12T08:44:16.408Z,44.77
2018-05-12T08:46:43.909Z,43.93
2018-05-12T08:51:45.172Z,42.84
2018-05-12T08:54:12.634Z,41.28
2018-05-12T08:56:40.156Z,41.46
2018-05-12T08:59:07.614Z,42.63
2018-05-12T09:01:35.060Z,40.69
2018-05-12T09:04:02.506Z,41.84
2018-05-12T09:06:29.956Z,42.73
2018-05-12T09:08:57.417Z,40.57
2018-05-12T09:11:24.989Z,41.58
2018-05-12T09:13:52.442Z,40.26
2018-05-12T09:16:19.906Z,42.20
2018-05-12T09:18:47.417Z,40.50
2018-05-12T09:21:14.869Z,38.98
2018-05-12T09:23:42.365Z,38.86
2018-05-12T09:26:09.907Z,39.55
2018-05-12T09:28:37.382Z,39.53
2018-05-12T09:31:04.850Z,38.56
2018-05-12T09:33:32.289Z,38.72
2018-05-12T09:35:59.746Z,39.83
2018-05-12T09:38:27.193Z,39.36
2018-05-12T09:40:54.650Z,39.47
2018-05-12T09:43:22.121Z,40.79
2018-05-12T09:45:49.639Z,39.59
2018-05-12T09:48:17.166Z,38.61
2018-05-12T09:50:44.610Z,39.11
2018-05-12T09:53:12.064Z,38.40
2018-05-12T09:55:39.522Z,39.80
2018-05-12T09:58:06.977Z,37.51
2018-05-12T10:00:34.425Z,36.92
2018-05-12T10:03:01.887Z,36.13
2018-05-12T10:05:29.363Z,36.70
2018-05-12T10:07:58.662Z,36.35
2018-05-12T10:10:26.164Z,34.98
2018-05-12T10:12:53.694Z,36.02
2018-05-12T10:15:21.121Z,34.47
2018-05-12T10:17:48.553Z,34.53
2018-05-12T10:20:16.004Z,33.36
2018-05-12T10:22:43.481Z,33.97
2018-05-12T10:25:10.955Z,33.08
2018-05-12T10:27:38.389Z,32.75
2018-05-12T10:30:05.875Z,32.37
2018-05-12T10:32:33.295Z,31.47
2018-05-12T10:35:00.748Z,31.61
2018-05-12T10:37:28.210Z,30.41
2018-05-12T10:39:55.673Z,31.73
2018-05-12T10:42:23.158Z,30.42
2018-05-12T10:44:50.659Z,31.44
2018-05-12T10:47:18.115Z,30.96
2018-05-12T10:49:45.567Z,31.32
2018-05-12T10:52:13.034Z,31.53
2018-05-12T10:54:40.476Z,30.96
2018-05-12T10:57:07.943Z,32.32
2018-05-12T10:59:35.398Z,31.67
2018-05-12T11:02:02.928Z,30.15
2018-05-12T11:04:30.309Z,31.09
2018-05-12T11:06:57.755Z,33.20
2018-05-12T11:09:25.215Z,32.91
2018-05-12T11:11:52.658Z,30.40
2018-05-12T11:14:20.110Z,30.98
2018-05-12T11:16:47.575Z,30.68
2018-05-12T11:19:15.010Z,30.06
2018-05-12T11:21:42.471Z,30.34
2018-05-12T11:24:09.914Z,28.03
2018-05-12T11:26:37.570Z,27.91
2018-05-12T11:29:05.058Z,25.98
2018-05-12T11:31:32.533Z,26.43
2018-05-12T11:34:00.010Z,26.02
2018-05-12T11:36:27.512Z,24.94
2018-05-12T11:38:54.954Z,22.08
2018-05-12T11:41:22.409Z,21.93
2018-05-12T11:43:49.911Z,21.14
2018-05-12T11:46:17.374Z,20.18
2018-05-12T11:48:44.850Z,20.22
2018-05-12T11:51:12.298Z,20.78
2018-05-12T11:53:39.738Z,22.75
2018-05-12T11:56:07.222Z,26.18
2018-05-12T11:58:34.688Z,26.49
2018-05-12T12:01:02.157Z,26.11
2018-05-12T12:03:29.622Z,23.04
2018-05-12T12:05:57.077Z,19.88
2018-05-12T12:08:24.525Z,16.67
2018-05-12T12:10:51.997Z,14.92
2018-05-12T12:13:19.450Z,15.19
2018-05-12T12:15:46.889Z,15.92
2018-05-12T12:18:14.430Z,15.31
2018-05-12T12:20:41.883Z,14.73
2018-05-12T12:23:09.328Z,15.73
2018-05-12T12:25:36.775Z,15.95
2018-05-12T12:28:04.218Z,16.56
2018-05-12T12:30:31.682Z,15.63
2018-05-12T12:32:59.127Z,12.68
2018-05-12T12:35:26.601Z,11.19
2018-05-12T12:37:54.046Z,10.28
2018-05-12T12:40:21.483Z,10.46
2018-05-12T12:42:48.921Z,10.04
2018-05-12T12:45:16.385Z,11.55
2018-05-12T12:47:43.853Z,10.88
2018-05-12T12:50:11.291Z,9.00
2018-05-12T12:52:38.740Z,10.98
2018-05-12T12:55:06.179Z,8.50
2018-05-12T12:57:33.694Z,8.78
2018-05-12T13:00:01.154Z,10.47
2018-05-12T13:02:28.648Z,9.26
2018-05-12T13:04:56.183Z,9.53
2018-05-12T13:07:23.553Z,8.71
2018-05-12T13:09:51.017Z,8.55
2018-05-12T13:12:18.503Z,8.08
2018-05-12T13:14:45.947Z,7.95
2018-05-12T13:17:13.376Z,7.64
2018-05-12T13:19:40.830Z,8.27
2018-05-12T13:22:08.281Z,8.20
2018-05-12T13:24:35.725Z,8.72
2018-05-12T13:27:03.161Z,8.60
2018-05-12T13:29:30.597Z,8.62
2018-05-12T13:31:58.029Z,10.22
2018-05-12T13:34:25.466Z,9.53
2018-05-12T13:36:52.901Z,12.73
2018-05-12T13:39:20.332Z,15.06
2018-05-12T13:41:47.980Z,14.87
2018-05-12T13:44:15.436Z,15.77
2018-05-12T13:46:42.978Z,17.59
2018-05-12T13:49:10.440Z,18.35
2018-05-12T13:51:37.885Z,17.33
2018-05-12T13:54:05.335Z,15.02
2018-05-12T13:56:32.781Z,13.34
2018-05-12T13:59:00.222Z,13.10
2018-05-12T14:01:27.818Z,14.01
2018-05-12T14:03:55.286Z,13.95
2018-05-12T14:06:22.846Z,12.54
2018-05-12T14:08:50.373Z,13.47
2018-05-12T14:11:18.667Z,12.27
2018-05-12T14:13:46.131Z,11.04
2018-05-12T14:16:13.885Z,10.01
2018-05-12T14:18:41.262Z,9.39
2018-05-12T14:21:08.725Z,9.01
2018-05-12T14:23:36.168Z,7.88
2018-05-12T14:26:03.606Z,7.84
2018-05-12T14:28:31.046Z,7.88
2018-05-12T14:30:58.494Z,9.36
2018-05-12T14:33:26.180Z,9.09
2018-05-12T14:35:53.624Z,9.07
2018-05-12T14:38:21.057Z,9.84
2018-05-12T14:40:48.521Z,10.42
2018-05-12T14:43:16.010Z,8.63
2018-05-12T14:45:43.451Z,9.16
2018-05-12T14:48:10.884Z,11.44
2018-05-12T14:50:38.409Z,11.62
2018-05-12T14:53:05.861Z,12.54
2018-05-12T14:55:33.444Z,14.93
2018-05-12T14:58:00.890Z,16.23
2018-05-12T15:00:28.378Z,16.42
2018-05-12T15:02:55.826Z,17.13
2018-05-12T15:05:23.266Z,17.96
2018-05-12T15:07:50.782Z,18.16
2018-05-12T15:10:18.258Z,16.52
2018-05-12T15:12:45.707Z,15.25
2018-05-12T15:15:13.163Z,17.48
2018-05-12T15:17:40.605Z,19.21
2018-05-12T15:20:08.048Z,19.28
2018-05-12T15:22:35.505Z,20.44
2018-05-12T15:25:02.975Z,21.73
2018-05-12T15:27:30.435Z,22.49
2018-05-12T15:29:57.926Z,22.26
2018-05-12T15:32:25.441Z,22.87
2018-05-12T15:34:52.905Z,22.28
2018-05-12T15:37:20.355Z,21.74
2018-05-12T15:39:47.808Z,19.60
2018-05-12T15:42:15.363Z,19.95
2018-05-12T15:44:42.863Z,19.87
2018-05-12T15:47:10.405Z,19.33
2018-05-12T15:49:37.861Z,16.23
2018-05-12T15:52:05.322Z,15.37
2018-05-12T15:54:32.775Z,15.25
2018-05-12T15:57:00.382Z,14.73
2018-05-12T15:59:27.948Z,15.12
2018-05-12T16:01:55.397Z,14.53
2018-05-12T16:04:22.863Z,14.77
2018-05-12T16:06:50.300Z,15.19
2018-05-12T16:09:17.805Z,17.35
2018-05-12T16:11:45.237Z,18.05
2018-05-12T16:14:12.689Z,18.25
2018-05-12T16:16:40.143Z,20.79
2018-05-12T16:19:07.588Z,19.71
2018-05-12T16:21:35.051Z,20.21
2018-05-12T16:24:02.500Z,21.36
2018-05-12T16:26:29.959Z,21.82
2018-05-12T16:28:57.440Z,21.88
2018-05-12T16:31:24.951Z,22.03
2018-05-12T16:33:52.482Z,22.44
2018-05-12T16:36:19.920Z,22.01
2018-05-12T16:38:47.383Z,21.25
2018-05-12T16:41:14.840Z,21.50
2018-05-12T16:43:42.302Z,20.06
2018-05-12T16:46:09.755Z,20.94
2018-05-12T16:48:37.200Z,20.56
2018-05-12T16:51:04.866Z,20.79
2018-05-12T16:53:32.291Z,21.37
2018-05-12T16:55:59.727Z,20.85
2018-05-12T16:58:27.273Z,21.01
2018-05-12T17:00:54.739Z,21.12
2018-05-12T17:03:22.174Z,21.03
2018-05-12T17:05:49.623Z,21.37
2018-05-12T17:08:17.071Z,21.56
2018-05-12T17:10:44.581Z,21.72
2018-05-12T17:13:12.096Z,22.46
2018-05-12T17:15:39.468Z,22.43
2018-05-12T17:18:06.908Z,22.59
2018-05-12T17:20:34.371Z,23.31
2018-05-12T17:23:01.817Z,23.49
2018-05-12T17:25:29.258Z,24.48
2018-05-12T17:27:56.696Z,25.52
2018-05-12T17:30:24.141Z,26.25
2018-05-12T17:32:51.608Z,26.70
2018-05-12T17:35:19.071Z,27.15
2018-05-12T17:37:46.579Z,28.11
2018-05-12T17:40:13.972Z,27.30
2018-05-12T17:42:41.425Z,30.21
2018-05-12T17:45:08.859Z,29.69
2018-05-12T17:47:36.292Z,30.62
2018-05-12T17:50:03.777Z,30.81
2018-05-12T17:52:31.190Z,30.08
2018-05-12T17:54:58.643Z,31.07
2018-05-12T17:57:26.083Z,30.74
2018-05-12T17:59:53.558Z,30.60
2018-05-12T18:02:21.003Z,30.72
2018-05-12T18:04:48.443Z,31.69
2018-05-12T18:07:15.880Z,31.62
2018-05-12T18:09:43.346Z,32.11
2018-05-12T18:12:10.801Z,32.76
2018-05-12T18:14:38.365Z,33.34
2018-05-12T18:17:06.336Z,33.72
2018-05-12T18:19:33.768Z,34.24
2018-05-12T18:22:01.207Z,35.03
2018-05-12T18:24:28.654Z,35.58
2018-05-12T18:26:56.096Z,35.24
2018-05-12T18:29:23.545Z,35.86
2018-05-12T18:31:51.095Z,35.66
2018-05-12T18:34:18.500Z,35.88
2018-05-12T18:36:45.943Z,36.43
2018-05-12T18:39:13.395Z,36.20
2018-05-12T18:41:40.838Z,36.25
2018-05-12T18:44:08.341Z,36.67
2018-05-12T18:46:35.769Z,36.57
2018-05-12T18:49:03.251Z,37.18
2018-05-12T18:51:30.720Z,37.46
2018-05-12T18:53:58.157Z,38.00
2018-05-12T18:56:25.591Z,37.94
2018-05-12T18:58:53.042Z,38.29
2018-05-12T19:01:20.493Z,39.22
2018-05-12T19:03:47.934Z,38.72
2018-05-12T19:06:15.373Z,39.08
2018-05-12T19:08:42.808Z,38.78
2018-05-12T19:11:10.247Z,39.32
2018-05-12T19:13:37.684Z,39.71
2018-05-12T19:16:05.133Z,39.56
2018-05-12T19:18:32.570Z,40.07
2018-05-12T19:21:00.003Z,40.04
2018-05-12T19:23:27.492Z,40.15
2018-05-12T19:25:54.933Z,40.95
2018-05-12T19:28:22.369Z,41.09
2018-05-12T19:30:49.828Z,41.48
2018-05-12T19:33:17.269Z,42.09
2018-05-12T19:35:44.715Z,42.49
2018-05-12T19:38:12.150Z,42.65
2018-05-12T19:40:39.597Z,43.16
2018-05-12T19:43:07.055Z,43.07
2018-05-12T19:45:34.497Z,43.25
2018-05-12T19:48:01.932Z,43.76
2018-05-12T19:50:29.390Z,43.59
2018-05-12T19:52:56.834Z,43.96
2018-05-12T19:55:24.294Z,43.83
2018-05-12T19:57:51.757Z,44.03
2018-05-12T20:00:19.240Z,44.11
2018-05-12T20:02:46.676Z,44.13
2018-05-12T20:05:14.114Z,44.30
2018-05-12T20:07:41.553Z,44.83
2018-05-12T20:10:08.988Z,44.84
2018-05-12T20:12:36.444Z,44.62
2018-05-12T20:15:03.876Z,44.68
2018-05-12T20:17:31.326Z,45.60
2018-05-12T20:19:58.773Z,44.68
2018-05-12T20:22:26.322Z,44.36
2018-05-12T20:24:53.834Z,45.26
2018-05-12T20:27:21.318Z,44.83
2018-05-12T20:29:49.745Z,45.25
2018-05-12T20:32:17.207Z,46.08
2018-05-12T20:34:44.665Z,45.61
2018-05-12T20:37:12.191Z,45.85
2018-05-12T20:39:39.562Z,46.65
2018-05-12T20:42:07.200Z,46.57
2018-05-12T20:44:34.654Z,47.52
2018-05-12T20:47:02.128Z,47.21
2018-05-12T20:49:29.581Z,47.86
2018-05-12T20:51:57.074Z,47.71
2018-05-12T20:54:24.510Z,48.02
2018-05-12T20:56:51.984Z,48.29
2018-05-12T20:59:19.478Z,48.89
2018-05-12T21:01:46.925Z,48.83
2018-05-12T21:04:14.408Z,49.32
2018-05-12T21:06:41.871Z,49.22
2018-05-12T21:09:09.323Z,48.70
2018-05-12T21:11:36.765Z,48.71
2018-05-12T21:14:04.207Z,48.58
2018-05-12T21:16:31.653Z,48.11
2018-05-12T21:18:59.094Z,48.41
2018-05-12T21:21:26.555Z,48.58
2018-05-12T21:23:54.103Z,48.77
2018-05-12T21:26:21.535Z,49.09
2018-05-12T21:28:48.978Z,48.55
2018-05-12T21:31:16.456Z,48.89
2018-05-12T21:33:43.920Z,48.60
2018-05-12T21:36:11.382Z,49.84
2018-05-12T21:38:38.921Z,50.16
2018-05-12T21:41:06.395Z,50.61
2018-05-12T21:43:33.846Z,51.10
2018-05-12T21:46:01.320Z,50.94
2018-05-12T21:48:28.771Z,50.91
2018-05-12T21:50:56.216Z,50.66
2018-05-12T21:53:23.686Z,50.94
2018-05-12T21:55:51.163Z,50.59
2018-05-12T21:58:18.705Z,50.24
2018-05-12T22:00:46.175Z,50.34
2018-05-12T22:03:13.667Z,50.41
2018-05-12T22:05:41.166Z,50.59
2018-05-12T22:08:09.307Z,51.12
2018-05-12T22:10:36.755Z,51.64
2018-05-12T22:13:04.233Z,51.56
2018-05-12T22:15:31.702Z,51.81
2018-05-12T22:17:59.187Z,52.43
2018-05-12T22:20:26.621Z,52.41
2018-05-12T22:22:54.098Z,52.99
2018-05-12T22:25:21.910Z,53.05
2018-05-12T22:27:49.357Z,53.52
2018-05-12T22:30:16.883Z,52.76
2018-05-12T22:32:44.328Z,53.61
2018-05-12T22:35:11.785Z,53.55
2018-05-12T22:37:39.276Z,53.31
2018-05-12T22:40:06.746Z,53.32
2018-05-12T22:42:34.191Z,53.41
2018-05-12T22:45:01.691Z,53.52
2018-05-12T22:47:29.236Z,53.81
2018-05-12T22:49:56.674Z,54.02
2018-05-12T22:52:24.212Z,52.67
2018-05-12T22:54:52.029Z,54.95
2018-05-12T22:57:19.512Z,54.34
2018-05-12T22:59:47.011Z,54.87
2018-05-12T23:02:14.569Z,54.94
2018-05-12T23:04:42.066Z,54.84
2018-05-12T23:07:09.497Z,55.16
2018-05-12T23:09:37.053Z,55.15
2018-05-12T23:12:04.517Z,54.81
2018-05-12T23:14:32.078Z,56.16
2018-05-12T23:16:59.560Z,56.61
2018-05-12T23:19:27.017Z,57.71
2018-05-12T23:21:54.503Z,57.23
2018-05-12T23:24:21.966Z,57.23
2018-05-12T23:26:49.449Z,57.92
2018-05-12T23:29:16.962Z,58.85
2018-05-12T23:31:44.501Z,58.73
2018-05-12T23:34:12.059Z,59.81
2018-05-12T23:36:39.501Z,58.51
2018-05-12T23:39:07.195Z,60.33
2018-05-12T23:41:34.717Z,60.87
2018-05-12T23:44:02.207Z,61.07
2018-05-12T23:46:29.770Z,61.51
2018-05-12T23:48:57.278Z,61.81
2018-05-12T23:51:24.936Z,60.03
2018-05-12T23:53:52.323Z,58.89
2018-05-12T23:56:19.792Z,58.79
2018-05-12T23:58:47.273Z,58.67
